createdAt,value
2018-04-30T00:00:08.055Z,8.13
2018-04-30T00:02:36.262Z,8.00
2018-04-30T00:05:04.552Z,7.80
2018-04-30T00:07:31.969Z,7.97
2018-04-30T00:09:59.381Z,7.63
2018-04-30T00:12:26.797Z,7.80
2018-04-30T00:14:54.217Z,7.53
2018-04-30T00:17:21.677Z,7.60
2018-04-30T00:19:49.848Z,7.60
2018-04-30T00:22:17.264Z,8.70
2018-04-30T00:24:44.680Z,8.00
2018-04-30T00:27:12.861Z,8.30
2018-04-30T00:29:40.272Z,8.07
2018-04-30T00:32:07.753Z,8.00
2018-04-30T00:34:35.155Z,8.70
2018-04-30T00:37:02.684Z,8.40
2018-04-30T00:39:30.096Z,8.83
2018-04-30T00:41:57.520Z,7.73
2018-04-30T00:44:24.928Z,8.50
2018-04-30T00:46:52.471Z,7.70
2018-04-30T00:49:19.888Z,8.23
2018-04-30T00:51:48.126Z,8.60
2018-04-30T00:54:27.506Z,8.93
2018-04-30T00:56:54.921Z,8.37
2018-04-30T00:59:22.398Z,7.87
2018-04-30T01:01:49.824Z,8.83
2018-04-30T01:04:18.221Z,8.65
2018-04-30T01:06:45.649Z,8.50
2018-04-30T01:09:13.060Z,8.90
2018-04-30T01:11:41.980Z,8.70
2018-04-30T01:14:10.160Z,8.70
2018-04-30T01:16:38.352Z,8.93
2018-04-30T01:19:06.568Z,9.20
2018-04-30T01:21:33.936Z,8.40
2018-04-30T01:24:01.352Z,8.73
2018-04-30T01:26:28.769Z,8.87
2018-04-30T01:28:56.195Z,8.23
2018-04-30T01:31:23.606Z,8.93
2018-04-30T01:33:51.000Z,8.93
2018-04-30T01:36:18.429Z,8.63
2018-04-30T01:38:45.852Z,8.70
2018-04-30T01:41:13.302Z,8.40
2018-04-30T01:43:40.708Z,9.20
2018-04-30T01:46:08.884Z,9.60
2018-04-30T01:48:37.063Z,8.43
2018-04-30T01:51:04.505Z,9.03
2018-04-30T01:53:31.976Z,8.37
2018-04-30T01:55:59.360Z,9.43
2018-04-30T01:58:26.783Z,9.37
2018-04-30T02:00:54.217Z,9.70
2018-04-30T02:03:21.623Z,9.90
2018-04-30T02:05:49.044Z,9.37
2018-04-30T02:08:16.557Z,9.73
2018-04-30T02:10:43.967Z,9.60
2018-04-30T02:13:11.421Z,9.87
2018-04-30T02:15:38.857Z,10.10
2018-04-30T02:18:07.057Z,9.77
2018-04-30T02:20:34.488Z,10.23
2018-04-30T02:23:01.895Z,9.53
2018-04-30T02:25:29.315Z,10.57
2018-04-30T02:27:56.759Z,10.23
2018-04-30T02:30:24.172Z,10.90
2018-04-30T02:32:52.364Z,10.63
2018-04-30T02:35:19.776Z,11.87
2018-04-30T02:37:47.215Z,10.77
2018-04-30T02:40:14.697Z,10.70
2018-04-30T02:42:42.145Z,10.43
2018-04-30T02:45:09.581Z,11.50
2018-04-30T02:47:37.020Z,11.23
2018-04-30T02:50:04.544Z,10.07
2018-04-30T02:52:32.733Z,10.90
2018-04-30T02:55:00.910Z,10.50
2018-04-30T02:57:29.120Z,10.73
2018-04-30T02:59:56.534Z,11.13
2018-04-30T03:02:23.949Z,11.23
2018-04-30T03:04:51.400Z,10.60
2018-04-30T03:07:19.139Z,11.43
2018-04-30T03:09:46.639Z,11.10
2018-04-30T03:12:14.033Z,12.30
2018-04-30T03:14:41.455Z,11.60
2018-04-30T03:17:08.915Z,12.37
2018-04-30T03:19:36.325Z,11.80
2018-04-30T03:22:04.515Z,12.53
2018-04-30T03:24:31.932Z,12.20
2018-04-30T03:26:59.348Z,12.90
2018-04-30T03:29:27.525Z,12.60
2018-04-30T03:31:55.713Z,13.00
2018-04-30T03:34:23.938Z,12.87
2018-04-30T03:36:51.357Z,13.40
2018-04-30T03:39:20.360Z,12.30
2018-04-30T03:41:47.776Z,13.40
2018-04-30T03:44:15.204Z,13.67
2018-04-30T03:46:43.389Z,14.33
2018-04-30T03:49:11.593Z,14.10
2018-04-30T03:51:39.791Z,14.80
2018-04-30T03:54:07.212Z,15.47
2018-04-30T03:56:34.668Z,15.87
2018-04-30T03:59:02.091Z,15.57
2018-04-30T04:01:41.461Z,16.87
2018-04-30T04:04:20.858Z,16.90
2018-04-30T04:06:52.085Z,17.20
2018-04-30T04:09:20.715Z,16.67
2018-04-30T04:11:48.139Z,17.30
2018-04-30T04:14:15.552Z,17.33
2018-04-30T04:16:42.970Z,17.63
2018-04-30T04:19:10.393Z,17.93
2018-04-30T04:21:38.589Z,18.60
2018-04-30T04:24:06.087Z,18.70
2018-04-30T04:26:33.495Z,18.70
2018-04-30T04:29:01.005Z,19.03
2018-04-30T04:31:28.487Z,19.70
2018-04-30T04:33:55.912Z,19.67
2018-04-30T04:36:24.098Z,20.60
2018-04-30T04:38:51.516Z,18.83
2018-04-30T04:41:18.948Z,18.90
2018-04-30T04:43:47.128Z,19.53
2018-04-30T04:46:15.313Z,19.30
2018-04-30T04:48:43.504Z,19.60
2018-04-30T04:51:11.689Z,19.10
2018-04-30T04:53:39.107Z,21.27
2018-04-30T04:56:06.528Z,19.67
2018-04-30T04:58:34.742Z,17.87
2018-04-30T05:01:02.152Z,21.23
2018-04-30T05:03:29.568Z,20.70
2018-04-30T05:05:57.019Z,19.70
2018-04-30T05:08:24.441Z,20.10
2018-04-30T05:10:51.945Z,21.33
2018-04-30T05:13:20.976Z,20.73
2018-04-30T05:15:49.166Z,21.80
2018-04-30T05:18:16.585Z,21.70
2018-04-30T05:20:44.006Z,21.17
2018-04-30T05:23:11.430Z,21.20
2018-04-30T05:25:38.848Z,21.90
2018-04-30T05:28:06.290Z,20.67
2018-04-30T05:30:33.696Z,21.90
2018-04-30T05:33:01.153Z,21.47
2018-04-30T05:35:28.637Z,21.93
2018-04-30T05:37:56.067Z,21.90
2018-04-30T05:40:23.468Z,21.80
2018-04-30T05:42:51.936Z,22.27
2018-04-30T05:45:21.046Z,20.93
2018-04-30T05:47:49.248Z,21.67
2018-04-30T05:50:17.440Z,21.70
2018-04-30T05:52:44.853Z,21.70
2018-04-30T05:55:12.370Z,23.70
2018-04-30T05:57:39.768Z,22.93
2018-04-30T06:00:07.213Z,23.00
2018-04-30T06:02:34.632Z,22.30
2018-04-30T06:05:02.146Z,22.23
2018-04-30T06:07:29.589Z,23.03
2018-04-30T06:09:57.780Z,21.63
2018-04-30T06:12:25.956Z,21.40
2018-04-30T06:14:53.378Z,22.30
2018-04-30T06:17:22.344Z,22.80
2018-04-30T06:19:51.490Z,21.63
2018-04-30T06:22:18.924Z,20.73
2018-04-30T06:24:46.352Z,20.90
2018-04-30T06:27:14.616Z,21.83
2018-04-30T06:29:42.067Z,20.73
2018-04-30T06:32:10.233Z,22.10
2018-04-30T06:34:39.176Z,22.53
2018-04-30T06:37:06.638Z,21.60
2018-04-30T06:39:34.175Z,21.80
2018-04-30T06:42:02.356Z,20.87
2018-04-30T06:44:30.537Z,21.60
2018-04-30T06:46:58.756Z,19.83
2018-04-30T06:49:26.169Z,21.00
2018-04-30T06:51:53.577Z,19.97
2018-04-30T06:54:22.704Z,20.37
2018-04-30T06:56:50.173Z,20.20
2018-04-30T06:59:17.578Z,20.40
2018-04-30T07:01:44.995Z,19.77
2018-04-30T07:04:12.529Z,18.30
2018-04-30T07:06:39.937Z,18.73
2018-04-30T07:09:07.496Z,18.17
2018-04-30T07:11:34.792Z,13.77
2018-04-30T07:14:02.240Z,13.60
2018-04-30T07:16:29.709Z,12.17
2018-04-30T07:18:57.164Z,11.83
2018-04-30T07:21:25.368Z,11.80
2018-04-30T07:23:52.822Z,11.57
2018-04-30T07:26:21.143Z,11.30
2018-04-30T07:28:48.699Z,10.97
2018-04-30T07:31:16.882Z,11.37
2018-04-30T07:33:44.370Z,11.27
2018-04-30T07:36:11.785Z,11.10
2018-04-30T07:38:39.251Z,10.13
2018-04-30T07:41:07.456Z,10.40
2018-04-30T07:43:35.666Z,9.80
2018-04-30T07:46:03.076Z,8.60
2018-04-30T07:48:30.616Z,8.47
2018-04-30T07:50:58.059Z,8.33
2018-04-30T07:53:25.478Z,7.60
2018-04-30T07:55:53.731Z,7.67
2018-04-30T07:58:21.161Z,7.23
2018-04-30T08:00:49.353Z,6.90
2018-04-30T08:03:17.536Z,6.00
2018-04-30T08:05:45.758Z,5.30
2018-04-30T08:08:13.906Z,4.43
2018-04-30T08:10:42.102Z,3.60
2018-04-30T08:13:10.408Z,3.30
2018-04-30T08:15:37.903Z,3.17
2018-04-30T08:18:05.262Z,2.78
2018-04-30T08:20:32.728Z,2.00
2018-04-30T08:23:00.288Z,1.73
2018-04-30T08:25:28.484Z,1.80
2018-04-30T08:27:55.942Z,1.23
2018-04-30T08:30:24.212Z,1.00
2018-04-30T08:32:53.448Z,0.80
2018-04-30T08:35:20.859Z,0.70
2018-04-30T08:37:48.285Z,0.80
2018-04-30T08:40:15.716Z,0.90
2018-04-30T08:42:43.943Z,1.07
2018-04-30T08:45:11.437Z,0.93
2018-04-30T08:47:38.767Z,0.90
2018-04-30T08:50:06.242Z,0.90
2018-04-30T08:52:33.652Z,0.90
2018-04-30T08:55:01.157Z,1.20
2018-04-30T08:57:29.371Z,0.90
2018-04-30T08:59:56.785Z,1.40
2018-04-30T09:02:24.303Z,1.13
2018-04-30T09:04:51.769Z,1.07
2018-04-30T09:07:19.212Z,0.93
2018-04-30T09:09:46.773Z,0.90
2018-04-30T09:12:14.139Z,1.20
2018-04-30T09:14:41.556Z,0.90
2018-04-30T09:17:08.980Z,1.43
2018-04-30T09:19:37.225Z,1.10
2018-04-30T09:22:04.680Z,0.93
2018-04-30T09:24:32.268Z,1.10
2018-04-30T09:27:00.654Z,1.00
2018-04-30T09:29:28.073Z,1.00
2018-04-30T09:31:56.246Z,1.07
2018-04-30T09:34:24.581Z,0.93
2018-04-30T09:36:52.017Z,1.10
2018-04-30T09:39:20.197Z,1.10
2018-04-30T09:41:48.427Z,0.80
2018-04-30T09:44:16.589Z,1.07
2018-04-30T09:46:44.784Z,1.07
2018-04-30T09:49:12.273Z,0.83
2018-04-30T09:51:39.681Z,1.00
2018-04-30T09:54:07.910Z,0.90
2018-04-30T09:56:35.329Z,1.03
2018-04-30T09:59:02.753Z,1.10
2018-04-30T10:01:30.217Z,1.10
2018-04-30T10:03:58.388Z,1.37
2018-04-30T10:06:26.580Z,1.10
2018-04-30T10:08:55.677Z,1.20
2018-04-30T10:11:23.264Z,1.30
2018-04-30T10:13:50.845Z,1.03
2018-04-30T10:16:18.276Z,1.20
2018-04-30T10:18:45.705Z,1.20
2018-04-30T10:21:13.138Z,1.70
2018-04-30T10:23:40.644Z,1.10
2018-04-30T10:26:07.980Z,1.10
2018-04-30T10:28:35.534Z,1.80
2018-04-30T10:31:02.892Z,1.40
2018-04-30T10:33:30.312Z,1.30
2018-04-30T10:35:57.737Z,1.40
2018-04-30T10:38:25.441Z,1.35
2018-04-30T10:40:52.917Z,1.20
2018-04-30T10:43:20.325Z,1.53
2018-04-30T10:45:47.858Z,1.10
2018-04-30T10:48:15.192Z,1.00
2018-04-30T10:50:43.420Z,0.80
2018-04-30T10:53:10.829Z,0.90
2018-04-30T10:55:39.013Z,0.80
2018-04-30T10:58:07.237Z,0.97
2018-04-30T11:00:34.650Z,1.00
2018-04-30T11:03:02.066Z,1.17
2018-04-30T11:05:29.488Z,1.00
2018-04-30T11:07:56.892Z,0.90
2018-04-30T11:10:24.295Z,0.90
2018-04-30T11:12:51.729Z,1.10
2018-04-30T11:15:19.929Z,0.90
2018-04-30T11:17:47.397Z,1.07
2018-04-30T11:20:14.942Z,0.90
2018-04-30T11:22:42.363Z,1.27
2018-04-30T11:25:09.776Z,1.10
2018-04-30T11:27:38.004Z,1.00
2018-04-30T11:30:06.152Z,1.07
2018-04-30T11:32:33.568Z,1.10
2018-04-30T11:35:01.046Z,1.07
2018-04-30T11:37:28.457Z,1.17
2018-04-30T11:39:57.165Z,1.07
2018-04-30T11:42:24.523Z,1.00
2018-04-30T11:44:52.699Z,0.90
2018-04-30T11:47:20.416Z,0.90
2018-04-30T11:49:48.589Z,0.97
2018-04-30T11:52:16.001Z,1.10
2018-04-30T11:54:43.477Z,1.00
2018-04-30T11:57:10.916Z,1.17
2018-04-30T11:59:38.378Z,1.00
2018-04-30T12:02:05.773Z,1.10
2018-04-30T12:04:33.204Z,1.10
2018-04-30T12:07:01.393Z,1.10
2018-04-30T12:09:28.804Z,1.30
2018-04-30T12:11:56.782Z,1.25
2018-04-30T12:14:24.216Z,1.37
2018-04-30T12:16:51.644Z,1.10
2018-04-30T12:19:19.099Z,1.17
2018-04-30T12:21:46.501Z,1.10
2018-04-30T12:24:14.685Z,1.10
2018-04-30T12:26:42.876Z,1.20
2018-04-30T12:29:11.073Z,1.00
2018-04-30T12:31:38.542Z,1.17
2018-04-30T12:34:06.125Z,1.00
2018-04-30T12:36:34.284Z,1.13
2018-04-30T12:39:02.460Z,1.67
2018-04-30T12:41:30.650Z,1.40
2018-04-30T12:43:58.057Z,1.13
2018-04-30T12:46:25.499Z,1.50
2018-04-30T12:48:52.916Z,1.43
2018-04-30T12:51:20.353Z,1.40
2018-04-30T12:53:47.788Z,1.53
2018-04-30T12:56:15.213Z,1.90
2018-04-30T12:58:42.624Z,1.30
2018-04-30T13:01:10.812Z,1.70
2018-04-30T13:03:43.064Z,1.53
2018-04-30T13:06:10.545Z,1.10
2018-04-30T13:08:37.981Z,1.60
2018-04-30T13:11:05.417Z,1.33
2018-04-30T13:13:33.613Z,1.43
2018-04-30T13:16:01.033Z,1.30
2018-04-30T13:18:28.460Z,1.30
2018-04-30T13:20:55.921Z,1.77
2018-04-30T13:23:23.335Z,2.00
2018-04-30T13:25:50.759Z,2.00
2018-04-30T13:28:18.197Z,1.62
2018-04-30T13:30:45.605Z,2.00
2018-04-30T13:33:13.033Z,1.67
2018-04-30T13:35:40.485Z,1.40
2018-04-30T13:38:07.876Z,1.60
2018-04-30T13:40:36.065Z,1.80
2018-04-30T13:43:04.263Z,1.40
2018-04-30T13:45:32.436Z,1.43
2018-04-30T13:48:00.614Z,1.50
2018-04-30T13:50:29.079Z,1.60
2018-04-30T13:52:56.489Z,1.70
2018-04-30T13:55:24.664Z,1.40
2018-04-30T13:57:52.116Z,1.63
2018-04-30T14:00:19.536Z,1.47
2018-04-30T14:02:46.936Z,1.20
2018-04-30T14:05:14.475Z,1.13
2018-04-30T14:07:41.886Z,1.27
2018-04-30T14:10:09.292Z,1.40
2018-04-30T14:12:37.496Z,1.37
2018-04-30T14:15:04.955Z,1.63
2018-04-30T14:17:32.434Z,1.50
2018-04-30T14:19:59.893Z,1.30
2018-04-30T14:22:27.316Z,1.47
2018-04-30T14:24:54.716Z,1.50
2018-04-30T14:27:22.920Z,1.20
2018-04-30T14:29:50.384Z,1.10
2018-04-30T14:32:17.843Z,1.27
2018-04-30T14:34:45.325Z,1.43
2018-04-30T14:37:12.761Z,1.67
2018-04-30T14:39:40.969Z,1.60
2018-04-30T14:42:08.392Z,2.40
2018-04-30T14:44:35.828Z,1.60
2018-04-30T14:47:03.248Z,1.70
2018-04-30T14:49:31.438Z,1.70
2018-04-30T14:52:00.078Z,1.87
2018-04-30T14:54:27.472Z,1.60
2018-04-30T14:56:55.003Z,1.30
2018-04-30T14:59:23.164Z,1.40
2018-04-30T15:01:51.357Z,1.57
2018-04-30T15:04:19.598Z,1.50
2018-04-30T15:06:47.740Z,1.53
2018-04-30T15:09:15.200Z,1.30
2018-04-30T15:11:44.148Z,1.70
2018-04-30T15:14:11.692Z,1.23
2018-04-30T15:16:39.872Z,1.30
2018-04-30T15:19:07.555Z,1.20
2018-04-30T15:21:35.001Z,1.30
2018-04-30T15:24:03.212Z,1.30
2018-04-30T15:26:30.626Z,1.00
2018-04-30T15:28:58.098Z,1.17
2018-04-30T15:31:25.535Z,1.27
2018-04-30T15:33:52.957Z,1.70
2018-04-30T15:36:21.152Z,1.70
2018-04-30T15:38:49.329Z,1.10
2018-04-30T15:41:16.814Z,1.10
2018-04-30T15:43:44.228Z,1.13
2018-04-30T15:46:11.645Z,1.05
2018-04-30T15:48:39.218Z,1.20
2018-04-30T15:51:06.620Z,1.10
2018-04-30T15:53:34.081Z,1.17
2018-04-30T15:56:01.508Z,1.00
2018-04-30T15:58:30.621Z,1.10
2018-04-30T16:00:59.828Z,0.93
2018-04-30T16:03:27.991Z,1.10
2018-04-30T16:05:55.427Z,1.30
2018-04-30T16:08:22.884Z,1.40
2018-04-30T16:10:50.346Z,1.13
2018-04-30T16:13:18.286Z,1.30
2018-04-30T16:15:46.521Z,1.40
2018-04-30T16:18:13.920Z,1.40
2018-04-30T16:20:41.454Z,1.37
2018-04-30T16:23:08.868Z,1.00
2018-04-30T16:25:36.292Z,0.90
2018-04-30T16:28:03.721Z,1.30
2018-04-30T16:30:31.126Z,1.10
2018-04-30T16:32:59.408Z,1.20
2018-04-30T16:35:26.827Z,1.17
2018-04-30T16:37:54.245Z,1.30
2018-04-30T16:40:21.670Z,1.13
2018-04-30T16:42:49.200Z,1.13
2018-04-30T16:45:16.606Z,1.10
2018-04-30T16:47:44.024Z,1.00
2018-04-30T16:50:11.502Z,1.17
2018-04-30T16:52:38.949Z,1.20
2018-04-30T16:55:06.393Z,1.30
2018-04-30T16:57:34.564Z,1.53
2018-04-30T17:00:01.999Z,0.80
2018-04-30T17:02:29.457Z,0.87
2018-04-30T17:04:56.933Z,1.57
2018-04-30T17:07:24.340Z,1.30
2018-04-30T17:09:51.801Z,1.07
2018-04-30T17:12:19.224Z,1.20
2018-04-30T17:14:46.627Z,1.03
2018-04-30T17:17:14.056Z,1.10
2018-04-30T17:19:41.526Z,1.17
2018-04-30T17:22:09.710Z,3.47
2018-04-30T17:24:37.889Z,1.23
2018-04-30T17:27:05.322Z,0.90
2018-04-30T17:29:32.852Z,0.93
2018-04-30T17:32:00.345Z,1.47
2018-04-30T17:34:27.660Z,1.00
2018-04-30T17:36:55.958Z,1.03
2018-04-30T17:39:24.121Z,1.20
2018-04-30T17:41:52.302Z,0.93
2018-04-30T17:44:20.480Z,1.00
2018-04-30T17:46:48.759Z,1.20
2018-04-30T17:49:16.880Z,1.10
2018-04-30T17:51:44.284Z,1.10
2018-04-30T17:54:11.810Z,1.40
2018-04-30T17:56:39.155Z,0.87
2018-04-30T17:59:06.549Z,1.10
2018-04-30T18:01:33.997Z,1.00
2018-04-30T18:04:01.434Z,0.90
2018-04-30T18:06:28.915Z,1.20
2018-04-30T18:08:56.309Z,1.10
2018-04-30T18:11:24.516Z,1.03
2018-04-30T18:13:52.145Z,1.00
2018-04-30T18:16:19.659Z,1.17
2018-04-30T18:18:48.069Z,1.20
2018-04-30T18:21:15.509Z,1.00
2018-04-30T18:23:43.679Z,1.33
2018-04-30T18:26:11.863Z,1.20
2018-04-30T18:28:40.046Z,1.40
2018-04-30T18:31:07.564Z,1.67
2018-04-30T18:33:34.988Z,1.80
2018-04-30T18:36:03.780Z,1.17
2018-04-30T18:38:31.232Z,1.70
2018-04-30T18:40:58.645Z,1.20
2018-04-30T18:43:26.088Z,1.20
2018-04-30T18:45:54.284Z,1.27
2018-04-30T18:48:21.780Z,1.53
2018-04-30T18:50:49.180Z,1.30
2018-04-30T18:53:16.597Z,1.20
2018-04-30T18:55:44.063Z,1.23
2018-04-30T18:58:11.488Z,1.70
2018-04-30T19:00:38.946Z,1.50
2018-04-30T19:03:06.395Z,1.97
2018-04-30T19:05:33.807Z,1.53
2018-04-30T19:08:01.390Z,1.23
2018-04-30T19:10:28.796Z,1.50
2018-04-30T19:12:56.145Z,1.17
2018-04-30T19:15:24.357Z,1.60
2018-04-30T19:17:51.777Z,1.30
2018-04-30T19:20:19.285Z,1.60
2018-04-30T19:22:46.723Z,1.10
2018-04-30T19:25:14.217Z,1.30
2018-04-30T19:27:41.669Z,1.43
2018-04-30T19:30:09.844Z,1.20
2018-04-30T19:32:37.276Z,1.50
2018-04-30T19:35:04.721Z,1.10
2018-04-30T19:37:32.128Z,1.10
2018-04-30T19:39:59.607Z,1.10
2018-04-30T19:42:26.953Z,1.50
2018-04-30T19:44:54.422Z,1.27
2018-04-30T19:47:21.830Z,1.17
2018-04-30T19:49:50.092Z,1.20
2018-04-30T19:52:17.643Z,1.40
2018-04-30T19:54:45.095Z,1.00
2018-04-30T19:57:12.525Z,1.13
2018-04-30T19:59:39.938Z,0.83
2018-04-30T20:02:07.372Z,1.13
2018-04-30T20:04:34.796Z,1.20
2018-04-30T20:07:02.208Z,1.13
2018-04-30T20:09:30.418Z,1.00
2018-04-30T20:11:57.923Z,1.80
2018-04-30T20:14:25.369Z,1.47
2018-04-30T20:16:52.801Z,1.40
2018-04-30T20:19:21.003Z,1.40
2018-04-30T20:21:48.427Z,1.20
2018-04-30T20:24:15.856Z,1.20
2018-04-30T20:26:43.305Z,1.30
2018-04-30T20:29:11.484Z,1.70
2018-04-30T20:31:39.663Z,1.53
2018-04-30T20:34:07.839Z,1.60
2018-04-30T20:36:36.084Z,1.63
2018-04-30T20:39:03.511Z,1.80
2018-04-30T20:41:31.001Z,1.80
2018-04-30T20:43:58.438Z,1.50
2018-04-30T20:46:26.635Z,1.73
2018-04-30T20:48:54.066Z,1.73
2018-04-30T20:51:21.493Z,1.80
2018-04-30T20:53:48.923Z,2.20
2018-04-30T20:56:17.120Z,2.40
2018-04-30T20:58:45.329Z,3.33
2018-04-30T21:01:12.756Z,1.80
2018-04-30T21:03:40.260Z,2.30
2018-04-30T21:06:07.699Z,2.20
2018-04-30T21:08:48.325Z,2.33
2018-04-30T21:11:15.751Z,1.97
2018-04-30T21:13:43.928Z,2.10
2018-04-30T21:16:12.146Z,1.70
2018-04-30T21:18:40.317Z,1.97
2018-04-30T21:21:08.487Z,2.50
2018-04-30T21:23:36.672Z,1.87
2018-04-30T21:26:05.775Z,1.70
2018-04-30T21:28:33.191Z,2.07
2018-04-30T21:31:00.598Z,1.70
2018-04-30T21:33:28.026Z,1.60
2018-04-30T21:35:55.408Z,1.80
2018-04-30T21:38:22.833Z,1.90
2018-04-30T21:40:50.265Z,1.60
2018-04-30T21:43:18.443Z,2.13
2018-04-30T21:45:45.864Z,1.50
2018-04-30T21:48:13.285Z,1.50
2018-04-30T21:50:40.694Z,1.13
2018-04-30T21:53:08.893Z,1.90
2018-04-30T21:55:37.245Z,1.40
2018-04-30T21:58:04.669Z,3.50
2018-04-30T22:00:32.153Z,1.73
2018-04-30T22:02:59.496Z,1.50
2018-04-30T22:05:26.921Z,1.53
2018-04-30T22:07:54.327Z,1.57
2018-04-30T22:10:21.750Z,1.57
2018-04-30T22:12:49.168Z,1.47
2018-04-30T22:15:16.588Z,1.10
2018-04-30T22:17:44.004Z,1.90
2018-04-30T22:20:11.428Z,1.43
2018-04-30T22:22:39.630Z,1.20
2018-04-30T22:25:07.805Z,1.20
2018-04-30T22:27:36.917Z,1.73
2018-04-30T22:30:05.092Z,1.33
2018-04-30T22:32:32.514Z,1.50
2018-04-30T22:34:59.928Z,1.30
2018-04-30T22:37:28.125Z,1.33
2018-04-30T22:39:55.534Z,1.27
2018-04-30T22:42:22.936Z,1.00
2018-04-30T22:44:50.348Z,0.90
2018-04-30T22:47:17.784Z,1.50
2018-04-30T22:49:45.212Z,1.00
2018-04-30T22:52:12.624Z,1.10
2018-04-30T22:54:40.337Z,1.17
2018-04-30T22:57:08.500Z,1.20
2018-04-30T22:59:37.605Z,1.10
2018-04-30T23:02:05.805Z,1.30
2018-04-30T23:04:33.995Z,1.00
2018-04-30T23:07:01.394Z,1.40
2018-04-30T23:09:28.806Z,2.20
2018-04-30T23:11:56.233Z,1.60
2018-04-30T23:14:23.684Z,1.47
2018-04-30T23:16:51.096Z,1.60
2018-04-30T23:19:18.534Z,1.87
2018-04-30T23:21:46.017Z,1.30
2018-04-30T23:24:13.431Z,1.70
2018-04-30T23:26:41.645Z,1.27
2018-04-30T23:29:09.105Z,1.30
2018-04-30T23:31:36.561Z,1.57
2018-04-30T23:34:04.736Z,1.00
2018-04-30T23:36:32.912Z,0.90
2018-04-30T23:39:00.348Z,1.60
2018-04-30T23:41:27.768Z,1.23
2018-04-30T23:43:55.269Z,1.35
2018-04-30T23:46:22.680Z,1.20
2018-04-30T23:48:50.104Z,0.90
2018-04-30T23:51:17.525Z,1.07
2018-04-30T23:53:45.027Z,1.37
2018-04-30T23:56:13.213Z,0.70
2018-04-30T23:58:41.368Z,0.70
